Time;durP1;ratioP1;P1;durP2;ratioP2;P2;SDS_P1;SDS_P2;PMS_P1;PMS_P2;Temp;Humidity;BMP_temperature;BMP_pressure;BME280_temperature;BME280_humidity;BME280_pressure;Samples;Min_cycle;Max_cycle;Signal;HPM_P1;HPM_P2
2021/12/21 00:02:23;;;;;;;50.20;46.10;;;;;;;-1.60;100.00;102726.69;4995922;28;20070;-47
2021/12/21 00:04:49;;;;;;;49.72;44.42;;;;;;;-1.62;100.00;102718.00;4995764;28;20054;-46
2021/12/21 00:07:15;;;;;;;45.05;41.00;;;;;;;-1.62;100.00;102718.00;4995811;28;20026;-47
2021/12/21 00:09:40;;;;;;;41.25;37.97;;;;;;;-1.61;100.00;102719.78;4995588;28;20030;-48
2021/12/21 00:12:07;;;;;;;40.17;35.80;;;;;;;-1.61;100.00;102717.22;4995448;28;20029;-46
2021/12/21 00:17:50;;;;;;;38.58;34.92;;;;;;;-1.56;100.00;102726.13;4916343;29;20503;-47
2021/12/21 00:25:22;;;;;;;43.13;32.47;;;;;;;-1.68;100.00;102704.75;4916327;29;20072;-47
2021/12/21 00:27:49;;;;;;;38.67;34.90;;;;;;;-1.64;100.00;102722.13;4916710;29;20028;-46
2021/12/21 00:30:16;;;;;;;36.13;32.85;;;;;;;-1.66;100.00;102716.00;4916579;29;20117;-47
2021/12/21 00:32:42;;;;;;;37.03;33.47;;;;;;;-1.70;100.00;102708.88;4916381;29;20048;-49
2021/12/21 00:35:08;;;;;;;38.08;34.58;;;;;;;-1.70;100.00;102711.44;4916356;29;20038;-47
2021/12/21 00:37:36;;;;;;;42.20;22.33;;;;;;;-1.69;100.00;102711.56;4921714;28;20032;-48
2021/12/21 00:40:02;;;;;;;39.40;32.45;;;;;;;-1.71;100.00;102696.88;4995047;28;20038;-47
2021/12/21 00:42:27;;;;;;;22.92;17.35;;;;;;;-1.69;100.00;102700.41;4994957;28;20026;-46
2021/12/21 00:44:52;;;;;;;26.38;15.82;;;;;;;-1.68;100.00;102702.19;4994951;28;20385;-47
2021/12/21 00:47:18;;;;;;;31.25;16.17;;;;;;;-1.66;100.00;102711.75;4995074;28;20026;-49
2021/12/21 00:49:46;;;;;;;26.05;15.80;;;;;;;-1.66;100.00;102696.38;4995064;28;20026;-49
2021/12/21 00:52:13;;;;;;;30.15;16.48;;;;;;;-1.64;100.00;102704.19;4995103;28;20192;-48
2021/12/21 00:54:39;;;;;;;31.65;15.73;;;;;;;-1.66;100.00;102695.50;4993968;28;20029;-47
2021/12/21 00:57:05;;;;;;;28.92;16.08;;;;;;;-1.73;100.00;102698.41;4994635;28;20022;-49
2021/12/21 00:59:33;;;;;;;32.63;15.98;;;;;;;-1.76;100.00;102687.97;4994815;28;20030;-47
2021/12/21 01:01:59;;;;;;;34.17;15.98;;;;;;;-1.81;100.00;102679.03;4995801;28;20441;-47
2021/12/21 01:04:31;;;;;;;28.33;15.13;;;;;;;-1.83;100.00;102686.63;4994866;28;20042;-47
2021/12/21 01:07:06;;;;;;;38.03;26.33;;;;;;;-1.84;100.00;102692.53;4981812;28;20027;-47
2021/12/21 01:10:03;;;;;;;;;;;;;;;;;;;;;
2021/12/21 01:12:04;;;;;;;95.72;90.15;;;;;;;-1.94;100.00;102693.56;4975293;28;20031;-46
2021/12/21 01:17:24;;;;;;;24.60;13.23;;;;;;;-1.98;100.00;102675.28;4975013;28;20039;-47
2021/12/21 01:20:02;;;;;;;29.30;14.27;;;;;;;-2.05;100.00;102681.66;4975163;28;20122;-48
2021/12/21 01:22:51;;;;;;;24.08;13.85;;;;;;;-2.07;100.00;102685.75;4975082;28;20061;-48
2021/12/21 01:30:29;;;;;;;30.58;15.43;;;;;;;-2.14;100.00;102683.56;4975082;28;20027;-49
2021/12/21 01:33:04;;;;;;;29.47;14.77;;;;;;;-2.17;100.00;102683.34;4975213;28;20031;-45
2021/12/21 01:35:37;;;;;;;24.98;13.57;;;;;;;-2.27;100.00;102675.78;4974973;28;20282;-47
2021/12/21 01:38:12;;;;;;;66.10;61.15;;;;;;;-2.29;100.00;102682.44;4974757;28;20031;-46
2021/12/21 01:41:05;;;;;;;1999.90;999.90;;;;;;;-2.33;100.00;102677.00;4975144;28;20038;-47
2021/12/21 01:51:23;;;;;;;1999.90;999.90;;;;;;;-2.47;100.00;102668.34;4973967;28;20053;-48
2021/12/21 01:53:50;;;;;;;1999.90;999.90;;;;;;;-2.46;100.00;102673.53;4974645;28;20038;-48
2021/12/21 01:56:16;;;;;;;1999.90;999.90;;;;;;;-2.44;100.00;102671.09;4974715;28;20038;-48
2021/12/21 01:58:42;;;;;;;1999.90;999.90;;;;;;;-2.47;100.00;102663.22;4974644;28;20410;-48
2021/12/21 02:01:11;;;;;;;1999.90;999.90;;;;;;;-2.57;100.00;102645.38;4974619;28;20056;-47
2021/12/21 02:03:38;;;;;;;1999.90;999.90;;;;;;;-2.52;100.00;102661.97;4974507;28;20145;-47
2021/12/21 02:06:04;;;;;;;1999.90;999.90;;;;;;;-2.58;100.00;102656.41;4974615;28;20022;-48
2021/12/21 02:08:30;;;;;;;63.78;58.90;;;;;;;-2.60;100.00;102655.41;4974528;28;20027;-50
2021/12/21 02:11:00;;;;;;;18.30;11.25;;;;;;;-2.63;100.00;102652.63;4974577;28;20367;-48
2021/12/21 02:13:31;;;;;;;25.98;13.15;;;;;;;-2.65;100.00;102656.75;4974670;28;20078;-47
2021/12/21 02:15:57;;;;;;;29.23;12.60;;;;;;;-2.69;100.00;102647.06;4974412;28;20038;-48
2021/12/21 02:18:36;;;;;;;21.90;13.05;;;;;;;-2.68;100.00;102648.84;4974477;28;20098;-50
2021/12/21 02:23:47;;;;;;;29.13;13.88;;;;;;;-2.67;100.00;102660.88;4974666;28;20140;-46
2021/12/21 02:26:35;;;;;;;40.65;15.50;;;;;;;-2.65;100.00;102659.28;4974226;28;20022;-48
2021/12/21 02:29:18;;;;;;;31.33;15.43;;;;;;;-2.64;100.00;102661.09;4974585;28;20054;-47
2021/12/21 02:31:47;;;;;;;22.75;13.93;;;;;;;-2.69;100.00;102653.06;4974676;28;20023;-47
2021/12/21 02:34:13;;;;;;;24.90;13.75;;;;;;;-2.72;100.00;102654.50;4974439;28;20035;-50
2021/12/21 02:36:40;;;;;;;30.85;15.50;;;;;;;-2.74;100.00;102648.38;4974456;28;20027;-48
2021/12/21 02:39:07;;;;;;;36.70;14.63;;;;;;;-2.73;100.00;102650.16;4974881;28;20031;-49
2021/12/21 02:41:32;;;;;;;33.60;14.63;;;;;;;-2.83;100.00;102644.34;4978153;28;20027;-48
2021/12/21 02:43:58;;;;;;;27.58;14.27;;;;;;;-2.79;100.00;102649.72;4978076;28;20466;-47
2021/12/21 02:46:24;;;;;;;43.42;16.85;;;;;;;-2.78;100.00;102639.59;4978115;28;20027;-50
2021/12/21 02:48:50;;;;;;;26.92;14.75;;;;;;;-2.79;100.00;102639.50;4992504;28;20114;-49
2021/12/21 02:51:15;;;;;;;29.08;14.70;;;;;;;-2.79;100.00;102644.63;4977659;28;20087;-48
2021/12/21 02:53:43;;;;;;;28.92;16.00;;;;;;;-2.81;100.00;102635.91;4977455;28;20070;-48
2021/12/21 02:56:09;;;;;;;31.48;15.15;;;;;;;-2.81;100.00;102633.38;4977398;28;20031;-49
2021/12/21 02:58:34;;;;;;;31.80;14.55;;;;;;;-2.81;100.00;102643.59;4977373;28;20033;-47
2021/12/21 03:01:00;;;;;;;34.60;16.13;;;;;;;-2.82;100.00;102640.13;4977390;28;20111;-50
2021/12/21 03:03:26;;;;;;;27.45;15.52;;;;;;;-2.83;100.00;102640.03;4977078;28;20030;-48
2021/12/21 03:05:55;;;;;;;36.75;15.73;;;;;;;-2.87;100.00;102639.78;4992298;28;20115;-50
2021/12/21 03:08:25;;;;;;;27.85;14.45;;;;;;;-2.87;100.00;102639.78;4977353;28;20031;-47
2021/12/21 03:16:14;;;;;;;33.33;14.02;;;;;;;-2.86;100.00;102640.69;4977395;28;20037;-47
2021/12/21 03:18:39;;;;;;;33.40;13.98;;;;;;;-2.87;100.00;102651.72;4977440;28;20031;-47
2021/12/21 03:21:04;;;;;;;31.65;14.20;;;;;;;-2.99;100.00;102641.47;4977164;28;20022;-48
2021/12/21 03:23:30;;;;;;;36.60;12.98;;;;;;;-3.00;100.00;102649.91;4977396;28;20429;-47
2021/12/21 03:25:55;;;;;;;40.08;15.32;;;;;;;-3.04;100.00;102645.34;4977192;28;20022;-47
2021/12/21 03:28:21;;;;;;;34.47;13.65;;;;;;;-3.06;100.00;102644.31;4977303;28;20026;-48
2021/12/21 03:30:46;;;;;;;32.90;13.95;;;;;;;-3.07;100.00;102637.47;4977288;28;20035;-48
2021/12/21 03:33:11;;;;;;;35.15;14.52;;;;;;;-3.08;100.00;102637.31;4976934;28;20023;-48
2021/12/21 03:35:37;;;;;;;30.40;12.75;;;;;;;-3.13;100.00;102642.09;4976711;28;20023;-48
2021/12/21 03:38:02;;;;;;;40.53;15.00;;;;;;;-3.18;100.00;102643.41;4977094;28;20485;-49
2021/12/21 03:40:33;;;;;;;34.65;14.48;;;;;;;-3.19;100.00;102641.66;4992071;28;20098;-48
2021/12/21 03:42:59;;;;;;;32.85;13.45;;;;;;;-3.20;100.00;102642.41;4977227;28;20157;-49
2021/12/21 03:45:26;;;;;;;38.03;15.32;;;;;;;-3.24;100.00;102642.97;4977136;28;20060;-48
2021/12/21 03:47:51;;;;;;;26.52;13.50;;;;;;;-3.28;100.00;102635.84;4991824;28;20105;-48
2021/12/21 03:50:20;;;;;;;31.83;14.40;;;;;;;-3.31;100.00;102635.63;4976017;28;20093;-49
2021/12/21 03:52:45;;;;;;;39.22;13.82;;;;;;;-3.33;100.00;102627.81;4976666;28;20029;-47
2021/12/21 03:55:11;;;;;;;33.47;14.02;;;;;;;-3.37;100.00;102630.91;4976382;28;20023;-50
2021/12/21 03:57:36;;;;;;;37.42;14.60;;;;;;;-3.36;100.00;102624.13;4976375;28;20022;-48
2021/12/21 04:00:07;;;;;;;30.15;13.73;;;;;;;-3.34;100.00;102617.47;4976303;28;20027;-48
2021/12/21 04:02:33;;;;;;;41.33;15.52;;;;;;;-3.31;100.00;102620.28;4976679;28;20018;-49
2021/12/21 04:04:59;;;;;;;41.53;15.00;;;;;;;-3.29;100.00;102622.94;4975358;28;20533;-50
2021/12/21 04:07:25;;;;;;;48.20;15.60;;;;;;;-3.28;100.00;102615.38;4976519;28;20061;-47
2021/12/21 04:09:51;;;;;;;37.20;15.75;;;;;;;-3.27;100.00;102612.06;4976517;28;20076;-47
2021/12/21 04:12:17;;;;;;;37.50;15.40;;;;;;;-3.28;100.00;102615.38;4976577;28;20415;-47
2021/12/21 04:14:42;;;;;;;39.83;14.65;;;;;;;-3.34;100.00;102614.91;4976327;28;20037;-48
2021/12/21 04:17:08;;;;;;;33.45;13.80;;;;;;;-3.35;100.00;102618.25;4976487;28;20039;-48
2021/12/21 04:19:33;;;;;;;40.40;14.52;;;;;;;-3.43;100.00;102599.81;4976340;28;20033;-49
2021/12/21 04:21:59;;;;;;;32.28;13.07;;;;;;;-3.40;100.00;102614.47;4975167;28;20173;-48
2021/12/21 04:24:25;;;;;;;28.90;14.00;;;;;;;-3.40;100.00;102610.25;4991020;28;20134;-48
2021/12/21 04:26:50;;;;;;;29.65;12.73;;;;;;;-3.43;100.00;102604.00;4976164;28;20018;-48
2021/12/21 04:29:16;;;;;;;34.45;12.70;;;;;;;-3.48;100.00;102606.22;4976052;28;20023;-48
2021/12/21 04:31:41;;;;;;;30.05;12.60;;;;;;;-3.51;100.00;102612.75;4975770;28;20479;-48
2021/12/21 04:34:07;;;;;;;35.42;13.45;;;;;;;-3.57;100.00;102604.63;4975912;28;20035;-47
2021/12/21 04:36:32;;;;;;;30.95;12.88;;;;;;;-3.51;100.00;102605.09;4975663;28;20027;-48
2021/12/21 04:39:04;;;;;;;34.50;13.20;;;;;;;-3.55;100.00;102608.19;4975638;28;20382;-47
2021/12/21 04:41:29;;;;;;;31.80;13.68;;;;;;;-3.53;100.00;102611.75;4975810;28;20030;-49
2021/12/21 04:43:57;;;;;;;31.27;13.10;;;;;;;-3.54;100.00;102604.84;4975832;28;20400;-47
2021/12/21 04:46:24;;;;;;;31.15;12.35;;;;;;;-3.53;100.00;102601.53;4975784;28;20048;-48
2021/12/21 04:51:15;;;;;;;34.38;13.80;;;;;;;-3.57;100.00;102599.50;4995352;23;20054;-49
2021/12/21 04:53:41;;;;;;;37.05;14.30;;;;;;;-3.52;100.00;102608.41;4994909;28;20336;-47
2021/12/21 04:56:07;;;;;;;36.67;15.15;;;;;;;-3.56;100.00;102593.63;4994604;28;20022;-46
2021/12/21 04:58:33;;;;;;;28.55;13.73;;;;;;;-3.51;100.00;102600.88;4994717;28;20026;-48
2021/12/21 05:00:59;;;;;;;40.05;14.10;;;;;;;-3.54;100.00;102602.28;4995092;28;20378;-48
2021/12/21 05:03:25;;;;;;;41.55;15.18;;;;;;;-3.53;100.00;102606.63;4994354;28;20026;-48
2021/12/21 05:05:51;;;;;;;38.88;14.52;;;;;;;-3.53;100.00;102609.19;4994672;28;20033;-48
2021/12/21 05:08:24;;;;;;;31.92;14.50;;;;;;;-3.52;100.00;102606.75;4994991;28;20026;-50
2021/12/21 05:11:03;;;;;;;40.20;16.50;;;;;;;-3.52;100.00;102608.41;4994772;28;20130;-47
2021/12/21 05:13:32;;;;;;;39.85;16.05;;;;;;;-3.48;100.00;102606.22;4995036;28;20026;-49
2021/12/21 05:15:58;;;;;;;35.92;14.73;;;;;;;-3.45;100.00;102606.44;4994698;28;20037;-48
2021/12/21 05:18:24;;;;;;;31.45;14.43;;;;;;;-3.46;100.00;102603.75;4994909;28;20120;-48
2021/12/21 05:20:49;;;;;;;38.20;15.55;;;;;;;-3.47;100.00;102605.44;4994494;28;20444;-48
2021/12/21 05:23:15;;;;;;;38.22;14.10;;;;;;;-3.50;100.00;102606.84;4994368;28;20031;-47
2021/12/21 05:25:41;;;;;;;46.47;14.43;;;;;;;-3.50;100.00;102604.31;4994345;28;20037;-48
2021/12/21 05:28:09;;;;;;;30.35;14.88;;;;;;;-3.48;100.00;102610.44;4994333;28;20113;-49
2021/12/21 05:30:35;;;;;;;32.60;13.95;;;;;;;-3.52;100.00;102604.22;4994670;28;20054;-47
2021/12/21 05:33:01;;;;;;;40.95;14.93;;;;;;;-3.50;100.00;102601.75;4994463;28;20046;-48
2021/12/21 05:35:27;;;;;;;37.97;15.55;;;;;;;-3.50;100.00;102596.63;4994267;28;20042;-48
2021/12/21 05:37:58;;;;;;;34.42;13.95;;;;;;;-3.51;100.00;102600.00;4994294;28;20129;-49
2021/12/21 05:40:31;;;;;;;36.30;14.82;;;;;;;-3.52;100.00;102603.31;4994081;28;20026;-48
2021/12/21 05:42:57;;;;;;;43.00;15.90;;;;;;;-3.53;100.00;102598.97;4994354;28;20508;-47
2021/12/21 05:45:22;;;;;;;39.45;16.00;;;;;;;-3.49;100.00;102608.66;4994385;28;20117;-49
2021/12/21 05:47:47;;;;;;;41.28;15.82;;;;;;;-3.58;100.00;102592.66;4993946;28;20097;-47
2021/12/21 05:50:16;;;;;;;37.83;15.75;;;;;;;-3.49;100.00;102608.66;4993808;28;20058;-47
2021/12/21 05:52:43;;;;;;;46.60;17.20;;;;;;;-3.53;100.00;102598.97;4994110;28;20030;-47
2021/12/21 05:55:09;;;;;;;38.20;16.58;;;;;;;-3.43;100.00;102611.69;4994029;28;20030;-48
2021/12/21 05:57:34;;;;;;;39.50;15.60;;;;;;;-3.50;100.00;102599.19;4993917;28;20529;-49
2021/12/21 06:00:00;;;;;;;37.85;17.00;;;;;;;-3.42;100.00;102623.66;4994147;28;20041;-48
2021/12/21 06:02:25;;;;;;;47.00;16.65;;;;;;;-3.45;100.00;102610.66;4994376;28;20045;-48
2021/12/21 06:04:51;;;;;;;37.75;16.08;;;;;;;-3.39;100.00;102616.25;4994145;28;20050;-48
2021/12/21 06:07:16;;;;;;;37.85;16.95;;;;;;;-3.39;100.00;102617.16;4994186;28;20032;-50
2021/12/21 06:09:45;;;;;;;42.97;16.08;;;;;;;-3.46;100.00;102606.31;4994213;28;20022;-47
2021/12/21 06:12:19;;;;;;;38.67;16.25;;;;;;;-3.44;100.00;102608.22;4994403;28;20030;-48
2021/12/21 06:23:25;;;;;;;;;;;;;;;;;;;;;
2021/12/21 06:27:59;;;;;;;42.47;17.85;;;;;;;-3.58;100.00;102618.19;4996655;28;20026;-47
2021/12/21 06:30:25;;;;;;;39.33;16.48;;;;;;;-3.63;100.00;102610.16;4994691;28;20501;-47
2021/12/21 06:32:50;;;;;;;42.95;16.65;;;;;;;-3.62;100.00;102616.19;4988044;28;20121;-48
2021/12/21 06:35:16;;;;;;;33.58;16.40;;;;;;;-3.62;100.00;102616.19;4992136;28;20038;-47
2021/12/21 06:37:42;;;;;;;41.42;17.20;;;;;;;-3.63;100.00;102615.28;4998733;28;20541;-52
2021/12/21 06:40:08;;;;;;;45.05;16.73;;;;;;;-3.67;100.00;102620.94;4997038;28;20061;-52
2021/12/21 06:42:35;;;;;;;32.85;14.45;;;;;;;-3.72;100.00;102624.78;4996947;28;20496;-52
2021/12/21 06:45:02;;;;;;;39.63;15.77;;;;;;;-3.80;100.00;102626.75;5001034;28;20494;-52
2021/12/21 06:53:02;;;;;;;35.35;14.88;;;;;;;-3.94;100.00;102627.31;4975446;28;20033;-52
2021/12/21 06:55:27;;;;;;;32.88;14.27;;;;;;;-3.93;100.00;102634.22;4980566;28;20031;-52
2021/12/21 06:57:53;;;;;;;38.03;14.82;;;;;;;-3.92;100.00;102627.47;4999838;28;20057;-55
2021/12/21 07:00:19;;;;;;;46.15;15.30;;;;;;;-3.97;100.00;102621.09;4999857;28;20038;-52
2021/12/21 07:02:45;;;;;;;34.33;14.88;;;;;;;-3.94;100.00;102621.34;4998402;28;20544;-53
2021/12/21 07:05:11;;;;;;;37.10;14.15;;;;;;;-3.91;100.00;102621.59;4995828;28;20023;-53
2021/12/21 07:07:47;;;;;;;38.60;14.82;;;;;;;-3.93;100.00;102624.00;4999293;28;20097;-52
2021/12/21 07:10:21;;;;;;;38.75;15.25;;;;;;;-3.97;100.00;102626.19;4998302;28;20034;-52
2021/12/21 07:18:08;;;;;;;34.95;14.88;;;;;;;-4.07;100.00;102631.38;4985415;28;20177;-53
2021/12/21 07:20:34;;;;;;;35.10;14.77;;;;;;;-4.09;100.00;102636.34;4989481;28;20469;-51
2021/12/21 07:23:00;;;;;;;35.50;14.27;;;;;;;-4.09;100.00;102636.34;4979378;28;20050;-52
2021/12/21 07:25:27;;;;;;;32.75;14.35;;;;;;;-4.14;100.00;102631.66;4966051;28;20049;-51
2021/12/21 07:27:53;;;;;;;34.75;14.90;;;;;;;-4.16;100.00;102623.88;4978322;28;20482;-52
2021/12/21 07:30:18;;;;;;;34.97;14.38;;;;;;;-4.20;100.00;102632.06;4970517;28;20098;-52
2021/12/21 07:32:44;;;;;;;31.13;14.10;;;;;;;-4.24;100.00;102637.69;4963779;28;20038;-52
2021/12/21 07:35:09;;;;;;;37.95;13.38;;;;;;;-4.26;100.00;102627.34;4973242;28;20034;-53
2021/12/21 07:37:35;;;;;;;35.88;13.90;;;;;;;-4.28;100.00;102630.56;4974050;28;20057;-51
2021/12/21 07:40:03;;;;;;;36.92;15.05;;;;;;;-4.28;100.00;102630.56;4975880;28;20041;-52
2021/12/21 07:42:28;;;;;;;32.92;13.82;;;;;;;-4.29;100.00;102631.31;4972560;28;20033;-52
2021/12/21 07:44:54;;;;;;;41.97;15.07;;;;;;;-4.24;100.00;102627.47;4972911;28;20042;-52
2021/12/21 07:47:20;;;;;;;37.33;15.23;;;;;;;-4.22;100.00;102633.63;4964068;28;20077;-52
2021/12/21 07:49:46;;;;;;;39.67;16.55;;;;;;;-4.21;100.00;102634.47;4963180;28;20054;-52
2021/12/21 07:52:12;;;;;;;36.25;15.20;;;;;;;-4.16;100.00;102634.09;4965294;28;20039;-53
2021/12/21 07:54:38;;;;;;;39.58;16.05;;;;;;;-4.11;100.00;102632.78;4967146;28;20042;-52
2021/12/21 07:57:08;;;;;;;47.97;17.42;;;;;;;-3.99;100.00;102638.88;4958332;28;20800;-52
2021/12/21 07:59:35;;;;;;;36.80;16.80;;;;;;;-3.91;100.00;102642.91;4945547;28;20425;-52
2021/12/21 08:02:01;;;;;;;53.97;16.85;;;;;;;-3.89;100.00;102646.47;4947717;28;20030;-52
2021/12/21 08:04:28;;;;;;;39.33;16.02;;;;;;;-3.89;100.00;102643.91;4950333;28;20093;-52
2021/12/21 08:06:57;;;;;;;38.08;16.00;;;;;;;-3.90;100.00;102639.56;4955544;28;20026;-52
2021/12/21 08:09:26;;;;;;;46.40;15.65;;;;;;;-3.89;100.00;102631.13;4953629;28;20039;-52
2021/12/21 08:12:13;;;;;;;41.33;16.05;;;;;;;-3.84;100.00;102626.38;4945671;28;20130;-52
2021/12/21 08:14:39;;;;;;;41.40;16.67;;;;;;;-3.88;100.00;102617.59;4947529;28;20105;-52
2021/12/21 08:17:05;;;;;;;41.97;15.95;;;;;;;-3.80;100.00;102621.63;4948464;28;20042;-52
2021/12/21 08:19:30;;;;;;;32.67;15.90;;;;;;;-3.66;100.00;102644.81;4956426;28;20077;-52
2021/12/21 08:21:56;;;;;;;37.60;16.63;;;;;;;-3.65;100.00;102638.91;4945489;28;20031;-52
2021/12/21 08:24:21;;;;;;;41.38;16.42;;;;;;;-3.62;100.00;102642.59;4953837;28;20038;-53
2021/12/21 08:26:47;;;;;;;43.90;16.63;;;;;;;-3.55;100.00;102639.75;4944006;28;20045;-52
2021/12/21 08:29:12;;;;;;;33.30;15.45;;;;;;;-3.52;100.00;102639.97;4935318;28;20026;-51
2021/12/21 08:31:38;;;;;;;38.50;16.13;;;;;;;-3.46;100.00;102647.19;4929237;28;20112;-52
2021/12/21 08:34:04;;;;;;;35.88;16.80;;;;;;;-3.42;100.00;102644.09;4930991;28;21767;-52
2021/12/21 08:36:31;;;;;;;34.17;15.70;;;;;;;-3.35;100.00;102648.94;4931748;28;20038;-52
2021/12/21 08:38:57;;;;;;;34.70;15.20;;;;;;;-3.28;100.00;102643.50;4931426;28;20080;-53
2021/12/21 08:41:26;;;;;;;42.20;18.85;;;;;;;-3.20;100.00;102647.53;4938633;28;20034;-52
2021/12/21 08:43:52;;;;;;;40.63;15.90;;;;;;;-3.13;100.00;102647.22;4943041;28;20877;-52
2021/12/21 08:46:17;;;;;;;34.10;17.17;;;;;;;-3.02;100.00;102653.13;4942435;28;20031;-52
2021/12/21 08:48:43;;;;;;;34.83;16.95;;;;;;;-2.98;100.00;102656.03;4933584;28;20774;-52
2021/12/21 08:51:08;;;;;;;35.10;16.80;;;;;;;-2.93;100.00;102651.25;4939900;28;20604;-52
2021/12/21 08:53:36;;;;;;;40.83;16.35;;;;;;;-2.86;100.00;102649.25;4940540;28;20048;-53
2021/12/21 08:56:05;;;;;;;41.63;16.77;;;;;;;-2.79;100.00;102647.16;4933096;28;20101;-53
2021/12/21 08:58:30;;;;;;;31.85;14.85;;;;;;;-2.71;100.00;102657.19;4936480;28;20445;-52
2021/12/21 09:00:56;;;;;;;28.58;15.43;;;;;;;-2.65;100.00;102647.41;4927750;28;20041;-52
2021/12/21 09:03:23;;;;;;;37.42;16.65;;;;;;;-2.57;100.00;102658.19;4918144;28;20038;-52
2021/12/21 09:05:49;;;;;;;37.10;15.60;;;;;;;-2.52;100.00;102656.88;4927832;28;20037;-52
2021/12/21 09:08:14;;;;;;;36.15;16.73;;;;;;;-2.49;100.00;102646.84;4929195;28;20129;-52
2021/12/21 09:10:40;;;;;;;39.88;15.27;;;;;;;-2.45;100.00;102644.63;4929588;28;20039;-52
2021/12/21 09:13:07;;;;;;;34.15;15.57;;;;;;;-2.36;100.00;102654.63;4938833;28;20405;-53
2021/12/21 09:15:33;;;;;;;40.80;17.10;;;;;;;-2.27;100.00;102650.19;4936226;28;20038;-52
2021/12/21 09:17:59;;;;;;;32.30;16.23;;;;;;;-2.26;100.00;102645.94;4929362;28;21057;-52
2021/12/21 09:20:28;;;;;;;40.45;16.38;;;;;;;-2.13;100.00;102654.59;4916629;28;20027;-52
2021/12/21 09:22:54;;;;;;;43.70;18.33;;;;;;;-2.06;100.00;102651.69;4932515;28;20494;-53
2021/12/21 09:25:20;;;;;;;41.53;16.65;;;;;;;-1.98;100.00;102655.69;4928105;28;20038;-52
2021/12/21 09:27:46;;;;;;;34.03;16.60;;;;;;;-1.92;100.00;102643.34;4922236;28;20171;-52
2021/12/21 09:30:14;;;;;;;36.00;17.25;;;;;;;-1.82;100.00;102651.63;4914185;28;20045;-52
2021/12/21 09:32:40;;;;;;;33.28;16.05;;;;;;;-1.78;100.00;102648.50;4932568;28;20032;-53
2021/12/21 09:35:07;;;;;;;26.17;14.50;;;;;;;-1.70;100.00;102655.06;4924142;28;20033;-52
2021/12/21 09:37:33;;;;;;;26.27;13.32;;;;;;;-1.67;100.00;102648.47;4926297;28;20543;-54
2021/12/21 09:39:59;;;;;;;24.25;13.50;;;;;;;-1.70;100.00;102638.00;4941269;28;20770;-52
2021/12/21 09:42:27;;;;;;;23.25;12.57;;;;;;;-1.52;100.00;102646.09;4934909;28;20046;-52
2021/12/21 09:44:54;;;;;;;26.52;12.70;;;;;;;-1.44;100.00;102644.94;4935953;28;20030;-53
2021/12/21 09:47:20;;;;;;;27.40;11.63;;;;;;;-1.36;100.00;102661.75;4943735;28;20505;-53
2021/12/21 09:49:47;;;;;;;20.13;12.40;;;;;;;-1.27;100.00;102652.09;4944971;28;20162;-52
2021/12/21 09:52:18;;;;;;;22.30;14.35;;;;;;;-1.13;100.00;102651.38;4952730;28;20034;-52
2021/12/21 09:54:44;;;;;;;1999.90;999.90;;;;;;;-1.09;100.00;102652.47;4947122;28;20041;-52
2021/12/21 09:57:10;;;;;;;26.88;12.98;;;;;;;-0.99;100.00;102649.72;4933902;28;20035;-54
2021/12/21 09:59:36;;;;;;;30.35;14.55;;;;;;;-0.92;100.00;102651.91;4933846;28;20045;-53
2021/12/21 10:02:03;;;;;;;23.02;11.68;;;;;;;-0.86;100.00;102656.53;4925245;28;20730;-53
2021/12/21 10:04:29;;;;;;;24.35;11.90;;;;;;;-0.85;100.00;102645.50;4942780;28;20033;-53
2021/12/21 10:06:56;;;;;;;21.52;10.27;;;;;;;-0.87;100.00;102653.09;4941556;28;20031;-53
2021/12/21 10:09:32;;;;;;;21.77;10.52;;;;;;;-0.80;100.00;102651.84;4936596;28;20034;-53
2021/12/21 10:11:58;;;;;;;17.02;8.80;;;;;;;-0.71;100.00;102647.28;4938699;28;20038;-53
2021/12/21 10:14:25;;;;;;;21.10;9.70;;;;;;;-0.61;100.00;102644.56;4931182;28;20035;-53
2021/12/21 10:17:08;;;;;;;20.15;9.63;;;;;;;-0.56;100.00;102648.31;4938394;28;20035;-53
2021/12/21 10:19:35;;;;;;;19.02;10.43;;;;;;;-0.46;100.00;102650.66;4939978;28;20033;-52
2021/12/21 10:22:11;;;;;;;20.80;10.07;;;;;;;-0.36;100.00;102642.78;4943693;28;20034;-53
2021/12/21 10:24:50;;;;;;;20.00;9.95;;;;;;;-0.26;100.00;102640.00;4935738;28;20038;-53
2021/12/21 10:27:18;;;;;;;19.75;10.07;;;;;;;-0.21;100.00;102630.91;4946046;28;22944;-52
2021/12/21 10:29:48;;;;;;;16.80;8.95;;;;;;;-0.17;100.00;102630.31;4945784;28;20052;-53
2021/12/21 10:32:19;;;;;;;18.25;9.23;;;;;;;-0.11;100.00;102628.13;4949101;28;20034;-53
2021/12/21 10:35:00;;;;;;;16.30;8.82;;;;;;;-0.03;100.00;102624.34;4943668;28;20038;-53
2021/12/21 10:37:31;;;;;;;18.00;8.85;;;;;;;0.07;100.00;102645.50;4947933;28;20038;-53
2021/12/21 10:40:09;;;;;;;24.27;8.77;;;;;;;0.14;100.00;102637.38;4945525;28;20809;-53
2021/12/21 10:42:45;;;;;;;19.63;8.00;;;;;;;0.18;100.00;102639.31;4950724;28;20092;-54
2021/12/21 10:45:10;;;;;;;14.90;8.38;;;;;;;0.25;100.00;102638.91;4932451;28;20038;-53
2021/12/21 10:47:37;;;;;;;20.08;7.97;;;;;;;0.35;100.00;102638.69;4938682;28;20144;-54
2021/12/21 10:50:05;;;;;;;17.35;8.05;;;;;;;0.40;100.00;102621.84;4942265;28;20185;-53
2021/12/21 10:52:31;;;;;;;16.75;7.18;;;;;;;0.47;100.00;102624.00;4933076;28;20038;-54
2021/12/21 10:54:57;;;;;;;11.38;6.88;;;;;;;0.54;100.00;102626.16;4922980;28;20450;-54
2021/12/21 10:57:34;;;;;;;15.48;7.10;;;;;;;0.60;100.00;102621.34;4921753;28;20485;-53
2021/12/21 11:00:05;;;;;;;14.52;6.60;;;;;;;0.83;100.00;102633.03;4907605;28;20157;-53
2021/12/21 11:02:34;;;;;;;11.77;6.57;;;;;;;0.76;100.00;102598.31;4930815;28;20034;-53
2021/12/21 11:05:01;;;;;;;12.45;6.05;;;;;;;1.01;100.00;102622.94;4924244;28;20204;-53
2021/12/21 11:07:44;;;;;;;19.67;7.15;;;;;;;1.06;100.00;102624.09;4936356;28;20424;-54
2021/12/21 11:10:17;;;;;;;15.15;7.90;;;;;;;1.19;100.00;102621.44;4940375;28;22237;-53
2021/12/21 11:12:56;;;;;;;16.52;7.25;;;;;;;1.37;100.00;102617.31;4937635;28;20039;-53
2021/12/21 11:15:31;;;;;;;15.38;6.78;;;;;;;1.40;100.00;102607.19;4958219;28;20038;-55
2021/12/21 11:17:59;;;;;;;14.30;6.72;;;;;;;1.64;100.00;102616.28;4949265;28;20041;-53
2021/12/21 11:20:25;;;;;;;12.32;7.53;;;;;;;1.95;100.00;102599.97;4949185;28;20034;-54
2021/12/21 11:22:52;;;;;;;14.48;6.75;;;;;;;2.11;100.00;102587.09;4953884;28;20038;-54
2021/12/21 11:25:18;;;;;;;15.38;6.82;;;;;;;2.31;100.00;102581.28;4964374;28;20121;-54
2021/12/21 11:27:44;;;;;;;18.88;6.70;;;;;;;2.80;100.00;102583.00;4961381;28;20816;-54
2021/12/21 11:30:12;;;;;;;12.05;6.22;;;;;;;3.41;100.00;102572.22;4957036;28;20150;-54
2021/12/21 11:32:45;;;;;;;12.63;7.03;;;;;;;4.20;100.00;102566.47;4939132;28;20042;-53
2021/12/21 11:37:42;;;;;;;12.77;7.40;;;;;;;4.67;100.00;102551.31;4950351;28;20251;-57
2021/12/21 11:40:12;;;;;;;14.00;6.00;;;;;;;4.74;100.00;102558.50;4953111;28;20121;-55
2021/12/21 11:42:59;;;;;;;14.37;5.33;;;;;;;5.00;100.00;102561.31;4958327;28;20161;-54
2021/12/21 11:45:34;;;;;;;10.25;5.78;;;;;;;5.81;100.00;102555.09;4971121;28;21014;-54
2021/12/21 11:48:11;;;;;;;9.60;5.78;;;;;;;6.74;100.00;102551.56;4973429;28;20034;-55
2021/12/21 11:50:41;;;;;;;11.77;5.45;;;;;;;6.71;100.00;102548.88;4967032;28;20403;-54
2021/12/21 11:53:10;;;;;;;10.52;5.22;;;;;;;7.36;100.00;102544.16;4963517;28;20085;-53
2021/12/21 11:55:39;;;;;;;13.52;5.03;;;;;;;8.56;100.00;102533.81;4947720;28;20054;-55
2021/12/21 11:58:21;;;;;;;8.45;4.93;;;;;;;9.39;100.00;102523.75;4957227;28;20085;-55
2021/12/21 12:00:50;;;;;;;8.73;5.78;;;;;;;9.84;93.01;102523.00;4961022;28;20045;-54
2021/12/21 12:03:20;;;;;;;9.30;5.00;;;;;;;9.96;89.61;102511.94;4959648;28;20052;-54
2021/12/21 12:06:07;;;;;;;8.65;5.07;;;;;;;10.61;82.82;102510.63;4958546;28;20018;-54
2021/12/21 12:08:54;;;;;;;9.77;4.82;;;;;;;10.70;79.72;102513.44;4959016;28;20037;-54
2021/12/21 12:11:35;;;;;;;9.07;5.07;;;;;;;10.94;77.87;102516.47;4967140;28;20145;-53